Flight Track Log - Related Links

Times and Time Zones

All times are in EDT time to prevent confusion due to time zone crossing. See the N414NW flight status page for this flight to view local times or setup timezone preferences in your user account.

Time Position Orientation Groundspeed Altitude Reporting Facility
EDT Latitude Longitude Course Direction KTS MPH feet Rate Location/Type
Sun 06:11:40 PM 30.3175 -85.7753 155° Southeast 172 198 1,100  Level Jacksonville Center
Sun 06:12:39 PM 30.2844 -85.7575 155° Southeast 145 167 1,600 550 Climbing Jacksonville Center
Sun 06:13:40 PM 30.2600 -85.7256 132° Southeast 133 153 2,200 595 Climbing Jacksonville Center
Sun 06:14:40 PM 30.2917 -85.7192 10° North 47 54 2,800 650 Climbing Jacksonville Center
Sun 06:15:40 PM 30.3289 -85.7297 346° North 72 83 3,500 700 Climbing Jacksonville Center
Sun 06:16:40 PM 30.3661 -85.7406 346° North 113 130 4,200 750 Climbing Jacksonville Center
Sun 06:17:40 PM 30.3994 -85.7464 351° North 126 145 5,000 807 Climbing Jacksonville Center
Sun 06:18:39 PM 30.4369 -85.7547 349° North 126 145 5,800 667 Climbing Jacksonville Center
Sun 06:20:40 PM 30.5117 -85.7739 348° North 126 145 7,000 662 Climbing Jacksonville Center
Sun 06:21:04 PM 30.5283 -85.7792 345° North 141 162 7,400 700 Climbing Jacksonville Center
Sun 06:21:40 PM 30.5489 -85.7869 342° North 126 145 7,700 667 Climbing Jacksonville Center
Sun 06:22:16 PM 30.5739 -85.7950 344° North 147 169 8,200 700 Climbing Jacksonville Center
Sun 06:22:40 PM 30.5883 -85.7956 358° North 132 152 8,400 590 Climbing Jacksonville Center
Sun 06:23:17 PM 30.6133 -85.8036 345° North 146 168 8,800 800 Climbing Jacksonville Center
Sun 06:23:40 PM 30.6300 -85.8064 352° North 137 158 9,200 800 Climbing Jacksonville Center
Sun 06:24:17 PM 30.6547 -85.8144 344° North 149 171 9,600 600 Climbing Jacksonville Center
Sun 06:24:40 PM 30.6692 -85.8172 351° North 142 163 9,800 393 Climbing Jacksonville Center
Sun 06:25:18 PM 30.7003 -85.8278 344° North 162 186 10,000 200 Climbing Jacksonville Center
Sun 06:25:40 PM 30.7169 -85.8308 351° North 152 175 10,000 98 Level Jacksonville Center
Sun 06:26:19 PM 30.7500 -85.8439 341° North 190 219 10,100  Climbing Jacksonville Center
Sun 06:26:40 PM 30.7667 -85.8494 344° North 165 190 10,000  Descending Jacksonville Center
Sun 06:27:19 PM 30.8019 -85.8600 346° North 186 214 10,100 100 Climbing Jacksonville Center
Sun 06:27:40 PM 30.8186 -85.8631 351° North 177 204 10,100  Level Jacksonville Center
Sun 06:28:20 PM 30.8497 -85.8736 344° North 181 208 10,100  Level Jacksonville Center
Sun 06:28:40 PM 30.8661 -85.8792 344° North 182 209 10,100  Level Jacksonville Center
Sun 06:29:20 PM 30.8994 -85.8872 348° North 182 209 10,100  Level Jacksonville Center
Sun 06:29:40 PM 30.9139 -85.8925 343° North 182 209 10,100  Level Jacksonville Center
Sun 06:30:21 PM 30.9469 -85.9033 344° North 180 207 10,100  Level Jacksonville Center
Sun 06:30:40 PM 30.9636 -85.9039 358° North 182 209 10,100  Level Jacksonville Center
Sun 06:31:16 PM 30.9947 -85.9169 340° North 180 207 10,100  Level Jacksonville Center
Sun 06:31:40 PM 31.0136 -85.9175 359° North 182 209 10,100  Level Jacksonville Center
Sun 06:32:16 PM 31.0425 -85.9283 342° North 177 204 10,100  Level Jacksonville Center
Sun 06:32:40 PM 31.0611 -85.9336 346° North 182 209 10,100 -98 Level Jacksonville Center
Sun 06:33:17 PM 31.0922 -85.9419 347° North 181 208 10,000 -62 Descending Jacksonville Center
Sun 06:34:17 PM 31.1400 -85.9556 346° North 178 205 10,000  Level Jacksonville Center
Sun 06:36:19 PM 31.2333 -85.9806 347° North 174 200 10,000  Level Jacksonville Center
Sun 06:37:13 PM 31.2767 -85.9942 345° North 174 200 10,000  Level Jacksonville Center
Sun 06:38:14 PM 31.3244 -86.0056 348° North 174 200 10,000  Level Jacksonville Center
Sun 06:39:14 PM 31.3722 -86.0192 346° North 175 201 10,000  Level Jacksonville Center
Sun 06:40:15 PM 31.4200 -86.0331 346° North 174 200 10,000  Level Jacksonville Center
Sun 06:41:16 PM 31.4656 -86.0442 348° North 173 199 10,000 50 Level Jacksonville Center
Sun 06:42:16 PM 31.5131 -86.0606 344° North 174 200 10,100 50 Climbing Jacksonville Center
Sun 06:43:17 PM 31.5631 -86.0719 349° North 173 199 10,100 -52 Level Jacksonville Center
Sun 06:44:11 PM 31.6044 -86.0831 347° North 174 200 10,000 -52 Descending Jacksonville Center
Sun 06:45:12 PM 31.6522 -86.0969 346° North 174 200 10,000  Level Jacksonville Center
Sun 06:46:13 PM 31.7019 -86.1083 349° North 176 203 10,000  Level Jacksonville Center
Sun 06:47:13 PM 31.7475 -86.1247 343° North 175 201 10,000  Level Jacksonville Center
Sun 06:48:14 PM 31.7953 -86.1361 349° North 172 198 10,000  Level Jacksonville Center
Sun 06:52:27 PM 31.9844 -86.2011 347° North 170 196 10,000  Level Atlanta Center
Sun 06:56:04 PM 32.1528 -86.2444 348° North 173 199 10,000  Level Atlanta Center
Sun 07:00:04 PM 32.3397 -86.2883 348° North 167 192 10,000  Level Atlanta Center
Sun 07:04:05 PM 32.5289 -86.3375 348° North 167 192 10,000  Level Atlanta Center
Sun 07:05:00 PM 32.5595 -86.3477 348° North  Level FlightAware Approximate
Sun 07:05:51 PM 32.6114 -86.3606 347° North 170 196 10,000  Level Memphis Center
Sun 07:06:53 PM 32.6578 -86.3714 349° North 170 196 10,000  Level Memphis Center
Sun 07:07:55 PM 32.7039 -86.3847 346° North 170 196 10,000  Level Memphis Center
Sun 07:08:29 PM 32.7325 -86.3897 352° North 169 194 10,000  Level Atlanta Center
Sun 07:08:59 PM 32.7550 -86.4050 330° Northwest 170 196 10,000  Level Atlanta Center
Sun 07:09:00 PM 32.7462 -86.3934 348° North  Level FlightAware Approximate
Sun 07:09:35 PM 32.7819 -86.4106 350° North 170 196 10,000  Level Atlanta Center
Sun 07:10:36 PM 32.8297 -86.4244 346° North 171 197 10,000  Level Atlanta Center
Sun 07:11:30 PM 32.8672 -86.4353 346° North 170 196 10,000  Level Atlanta Center
Sun 07:12:31 PM 32.9169 -86.4514 345° North 171 197 10,000  Level Atlanta Center
Sun 07:13:31 PM 32.9628 -86.4625 349° North 170 196 10,000  Level Atlanta Center
Sun 07:14:38 PM 33.0125 -86.4789 345° North 168 193 10,000  Level Atlanta Center
Sun 07:15:33 PM 33.0539 -86.4875 350° North 166 191 10,000  Level Atlanta Center
Sun 07:16:39 PM 33.1017 -86.5036 344° North 166 191 10,000  Level Atlanta Center
Sun 07:17:46 PM 33.1536 -86.5200 345° North 165 190 10,000  Level Atlanta Center
Sun 07:18:47 PM 33.1972 -86.5286 351° North 166 191 10,000  Level Atlanta Center
Sun 07:19:41 PM 33.2386 -86.5422 345° North 167 192 10,000  Level Atlanta Center
Sun 07:20:42 PM 33.2844 -86.5536 348° North 167 192 10,000  Level Atlanta Center
Sun 07:21:43 PM 33.3300 -86.5672 346° North 165 190 10,000  Level Atlanta Center
Sun 07:22:49 PM 33.3797 -86.5811 347° North 165 190 10,000  Level Atlanta Center
Sun 07:23:50 PM 33.4275 -86.5925 349° North 165 190 10,000  Level Atlanta Center
Sun 07:24:50 PM 33.4711 -86.6089 343° North 164 189 10,000  Level Atlanta Center
Sun 07:25:51 PM 33.5147 -86.6200 348° North 165 190 10,000  Level Atlanta Center
Sun 07:26:51 PM 33.5583 -86.6314 348° North 165 190 10,000  Level Atlanta Center
Sun 07:27:52 PM 33.6039 -86.6453 346° North 167 192 10,000  Level Atlanta Center
Sun 07:28:59 PM 33.6536 -86.6592 347° North 166 191 10,000  Level Atlanta Center
Sun 07:29:59 PM 33.7014 -86.6756 344° North 165 190 10,000  Level Atlanta Center
Sun 07:30:54 PM 33.7408 -86.6842 350° North 164 189 10,000 -104 Level Atlanta Center
Sun 07:31:54 PM 33.7864 -86.6983 346° North 166 191 9,800 -248 Descending Atlanta Center
Sun 07:32:55 PM 33.8297 -86.7194 338° Northwest 172 198 9,500 -362 Descending Atlanta Center
Sun 07:33:50 PM 33.8733 -86.7383 340° North 180 207 9,100 -495 Descending Atlanta Center
Sun 07:34:44 PM 33.9136 -86.7492 347° North 174 200 8,600 -569 Descending Memphis Center
Sun 07:35:46 PM 33.9650 -86.7636 347° North 179 206 8,000 -581 Descending Memphis Center
Sun 07:36:48 PM 34.0164 -86.7736 351° North 182 209 7,400 -484 Descending Memphis Center
Sun 07:37:50 PM 34.0667 -86.7844 350° North 182 209 7,000 -537 Descending Memphis Center
Sun 07:38:51 PM 34.1239 -86.8017 346° North 182 209 6,300 -537 Descending Memphis Center
Sun 07:39:53 PM 34.1708 -86.8186 343° North 182 209 5,900 -484 Descending Memphis Center
Sun 07:40:55 PM 34.2092 -86.8533 323° Northwest 177 204 5,300 -532 Descending Memphis Center
Sun 07:41:57 PM 34.2492 -86.8867 325° Northwest 176 203 4,800 -484 Descending Memphis Center
Sun 07:42:59 PM 34.2914 -86.9111 334° Northwest 174 200 4,300 -488 Descending Memphis Center
Sun 07:44:00 PM 34.3428 -86.9231 349° North 179 206 3,800 -439 Descending Memphis Center
Sun 07:45:02 PM 34.4022 -86.9286 356° North 180 207 3,400 -387 Descending Memphis Center
Sun 07:46:04 PM 34.4536 -86.9311 358° North 181 208 3,000 -194 Descending Memphis Center
Sun 07:47:06 PM 34.5078 -86.9358 356° North 181 208 3,000  Level Memphis Center
Sun 07:49:00 PM 34.5923 -86.9183 10° North  Level FlightAware Approximate
Sun 07:56:00 PM 34.6500 -86.9333 345° North  Level FlightAware Approximate
Sun 07:57:00 PM 34.6541 -86.9454 270° West  Level Estimated
Sun 07:58:00 PM 34.6541 -86.9454 345° North  Level Estimated
Sun 07:59:00 PM 34.6541 -86.9454 112° Southeast  Level Estimated
Sun 08:00:00 PM 34.6541 -86.9454 345° North  Level Estimated
Sun 08:01:00 PM 34.6541 -86.9454 112° Southeast  Level Estimated
Sun 08:02:00 PM 34.6541 -86.9454 345° North  Level Estimated
Sun 08:03:00 PM 34.6541 -86.9454 112° Southeast  Level Estimated

Login

Don't have an account? Register now (free) for customized features, flight alerts, and more!